Terminal Aerodrome Forecast
Issued by NWS

Home | Current Version | Previous Version | Text Only | Print | Product List | Glossary On
Versions: 1 2 3 4 5 6 7 8 9 10 11 12 13 14 15 16 17 18 19 20 21 22 23
000
FTUS44 KOUN 052320
TAFPNC
TAF
KPNC 052320Z 0600/0624 15013KT 5SM -RA BR SCT020 BKN060
      TEMPO 0600/0604 4SM -TSRA OVC030CB
     FM060400 15014G22KT 5SM -RA BR OVC030
      TEMPO 0604/0608 3SM -TSRA BR OVC020CB
     FM060800 14015G23KT 5SM BR OVC015 PROB30 0609/0613 3SM -TSRA BR
      OVC010CB
     FM061800 15018G25KT P6SM BKN025=

USA.gov is the U.S. government's official web portal to all federal, state and local government web resources and services.